sensor_id;sensor_type;location;lat;lon;timestamp;pressure;altitude;pressure_sealevel;temperature;humidity
28167;BME280;15455;53.376;-6.262;2023-03-04T00:01:53;103099.63;;;4.50;100.00
28167;BME280;15455;53.376;-6.262;2023-03-04T00:04:38;103103.09;;;4.50;100.00
28167;BME280;15455;53.376;-6.262;2023-03-04T00:07:23;103098.75;;;4.49;100.00
28167;BME280;15455;53.376;-6.262;2023-03-04T00:10:10;103090.09;;;4.49;100.00
28167;BME280;15455;53.376;-6.262;2023-03-04T00:12:55;103089.28;;;4.50;100.00
28167;BME280;15455;53.376;-6.262;2023-03-04T00:15:41;103085.81;;;4.49;100.00
28167;BME280;15455;53.376;-6.262;2023-03-04T00:18:26;103086.00;;;4.52;100.00
28167;BME280;15455;53.376;-6.262;2023-03-04T00:21:12;103088.50;;;4.51;100.00
28167;BME280;15455;53.376;-6.262;2023-03-04T00:23:57;103083.06;;;4.46;100.00
28167;BME280;15455;53.376;-6.262;2023-03-04T00:26:42;103082.94;;;4.45;100.00
28167;BME280;15455;53.376;-6.262;2023-03-04T00:29:28;103088.09;;;4.45;100.00
28167;BME280;15455;53.376;-6.262;2023-03-04T00:32:13;103091.59;;;4.45;100.00
28167;BME280;15455;53.376;-6.262;2023-03-04T00:35:00;103094.81;;;4.41;100.00
28167;BME280;15455;53.376;-6.262;2023-03-04T00:37:45;103087.66;;;4.37;100.00
28167;BME280;15455;53.376;-6.262;2023-03-04T00:40:31;103092.03;;;4.38;100.00
28167;BME280;15455;53.376;-6.262;2023-03-04T00:43:16;103092.03;;;4.38;100.00
28167;BME280;15455;53.376;-6.262;2023-03-04T00:46:02;103083.38;;;4.38;100.00
28167;BME280;15455;53.376;-6.262;2023-03-04T00:48:47;103087.56;;;4.35;100.00
28167;BME280;15455;53.376;-6.262;2023-03-04T00:51:33;103086.78;;;4.37;100.00
28167;BME280;15455;53.376;-6.262;2023-03-04T00:54:18;103085.84;;;4.36;100.00
28167;BME280;15455;53.376;-6.262;2023-03-04T00:57:04;103073.94;;;4.38;100.00
28167;BME280;15455;53.376;-6.262;2023-03-04T00:59:49;103073.94;;;4.38;100.00
28167;BME280;15455;53.376;-6.262;2023-03-04T01:02:35;103067.16;;;4.40;100.00
28167;BME280;15455;53.376;-6.262;2023-03-04T01:05:21;103075.09;;;4.43;100.00
28167;BME280;15455;53.376;-6.262;2023-03-04T01:08:06;103076.09;;;4.45;100.00
28167;BME280;15455;53.376;-6.262;2023-03-04T01:10:52;103068.34;;;4.45;100.00
28167;BME280;15455;53.376;-6.262;2023-03-04T01:13:37;103070.13;;;4.46;100.00
28167;BME280;15455;53.376;-6.262;2023-03-04T01:16:23;103063.34;;;4.48;100.00
28167;BME280;15455;53.376;-6.262;2023-03-04T01:19:09;103072.97;;;4.51;100.00
28167;BME280;15455;53.376;-6.262;2023-03-04T01:21:54;103068.78;;;4.53;100.00
28167;BME280;15455;53.376;-6.262;2023-03-04T01:24:40;103073.25;;;4.56;100.00
28167;BME280;15455;53.376;-6.262;2023-03-04T01:27:25;103079.31;;;4.56;100.00
28167;BME280;15455;53.376;-6.262;2023-03-04T01:30:11;103079.22;;;4.55;100.00
28167;BME280;15455;53.376;-6.262;2023-03-04T01:32:57;103086.97;;;4.55;100.00
28167;BME280;15455;53.376;-6.262;2023-03-04T01:35:42;103083.59;;;4.56;100.00
28167;BME280;15455;53.376;-6.262;2023-03-04T01:38:28;103087.06;;;4.56;100.00
28167;BME280;15455;53.376;-6.262;2023-03-04T01:41:16;103085.22;;;4.54;100.00
28167;BME280;15455;53.376;-6.262;2023-03-04T01:44:04;103081.88;;;4.56;100.00
28167;BME280;15455;53.376;-6.262;2023-03-04T01:46:54;103089.56;;;4.55;100.00
28167;BME280;15455;53.376;-6.262;2023-03-04T01:49:42;103077.34;;;4.52;100.00
28167;BME280;15455;53.376;-6.262;2023-03-04T01:52:27;103081.63;;;4.51;100.00
28167;BME280;15455;53.376;-6.262;2023-03-04T01:55:18;103071.09;;;4.48;100.00
28167;BME280;15455;53.376;-6.262;2023-03-04T01:58:04;103074.66;;;4.50;100.00
28167;BME280;15455;53.376;-6.262;2023-03-04T02:00:49;103063.53;;;4.51;100.00
28167;BME280;15455;53.376;-6.262;2023-03-04T02:03:35;103068.59;;;4.50;100.00
28167;BME280;15455;53.376;-6.262;2023-03-04T02:06:21;103061.53;;;4.47;100.00
28167;BME280;15455;53.376;-6.262;2023-03-04T02:09:07;103062.38;;;4.46;100.00
28167;BME280;15455;53.376;-6.262;2023-03-04T02:11:53;103057.81;;;4.42;100.00
28167;BME280;15455;53.376;-6.262;2023-03-04T02:14:38;103061.97;;;4.40;100.00
28167;BME280;15455;53.376;-6.262;2023-03-04T02:17:25;103063.59;;;4.38;100.00
28167;BME280;15455;53.376;-6.262;2023-03-04T02:28:59;103056.97;;;4.28;100.00
28167;BME280;15455;53.376;-6.262;2023-03-04T02:31:48;103054.19;;;4.25;100.00
28167;BME280;15455;53.376;-6.262;2023-03-04T02:34:35;103048.03;;;4.23;100.00
28167;BME280;15455;53.376;-6.262;2023-03-04T02:37:21;103043.78;;;4.24;100.00
28167;BME280;15455;53.376;-6.262;2023-03-04T02:40:17;103052.13;;;4.20;100.00
28167;BME280;15455;53.376;-6.262;2023-03-04T02:43:09;103051.06;;;4.16;100.00
28167;BME280;15455;53.376;-6.262;2023-03-04T02:45:56;103054.44;;;4.15;100.00
28167;BME280;15455;53.376;-6.262;2023-03-04T02:48:41;103053.44;;;4.13;100.00
28167;BME280;15455;53.376;-6.262;2023-03-04T02:51:27;103054.06;;;4.09;100.00
28167;BME280;15455;53.376;-6.262;2023-03-04T02:54:20;103056.75;;;4.10;100.00
28167;BME280;15455;53.376;-6.262;2023-03-04T02:57:09;103056.53;;;4.07;100.00
28167;BME280;15455;53.376;-6.262;2023-03-04T02:59:58;103057.44;;;4.08;100.00
28167;BME280;15455;53.376;-6.262;2023-03-04T03:02:44;103064.19;;;4.06;100.00
28167;BME280;15455;53.376;-6.262;2023-03-04T03:05:32;103062.34;;;4.03;100.00
28167;BME280;15455;53.376;-6.262;2023-03-04T03:08:20;103054.69;;;4.05;100.00
28167;BME280;15455;53.376;-6.262;2023-03-04T03:11:06;103048.31;;;3.99;100.00
28167;BME280;15455;53.376;-6.262;2023-03-04T03:13:54;103052.44;;;3.96;100.00
28167;BME280;15455;53.376;-6.262;2023-03-04T03:16:39;103051.59;;;3.97;100.00
28167;BME280;15455;53.376;-6.262;2023-03-04T03:19:25;103051.50;;;3.95;100.00
28167;BME280;15455;53.376;-6.262;2023-03-04T03:22:12;103048.13;;;3.96;100.00
28167;BME280;15455;53.376;-6.262;2023-03-04T03:24:57;103051.59;;;3.97;100.00
28167;BME280;15455;53.376;-6.262;2023-03-04T03:27:43;103051.50;;;3.95;100.00
28167;BME280;15455;53.376;-6.262;2023-03-04T03:30:30;103053.13;;;3.93;100.00
28167;BME280;15455;53.376;-6.262;2023-03-04T03:33:15;103042.59;;;3.90;100.00
28167;BME280;15455;53.376;-6.262;2023-03-04T03:36:01;103048.66;;;3.91;100.00
28167;BME280;15455;53.376;-6.262;2023-03-04T03:38:47;103042.41;;;3.87;100.00
28167;BME280;15455;53.376;-6.262;2023-03-04T03:41:33;103039.72;;;3.86;100.00
28167;BME280;15455;53.376;-6.262;2023-03-04T03:44:18;103041.31;;;3.83;100.00
28167;BME280;15455;53.376;-6.262;2023-03-04T03:47:03;103041.31;;;3.83;100.00
28167;BME280;15455;53.376;-6.262;2023-03-04T03:49:49;103038.72;;;3.83;100.00
28167;BME280;15455;53.376;-6.262;2023-03-04T03:52:34;103032.69;;;3.83;100.00
28167;BME280;15455;53.376;-6.262;2023-03-04T03:55:20;103032.50;;;3.80;100.00
28167;BME280;15455;53.376;-6.262;2023-03-04T03:58:06;103031.59;;;3.79;100.00
28167;BME280;15455;53.376;-6.262;2023-03-04T04:00:52;103033.28;;;3.79;100.00
28167;BME280;15455;53.376;-6.262;2023-03-04T04:03:37;103025.63;;;3.80;100.00
28167;BME280;15455;53.376;-6.262;2023-03-04T04:06:23;103037.75;;;3.81;100.00
28167;BME280;15455;53.376;-6.262;2023-03-04T04:09:08;103033.28;;;3.79;100.00
28167;BME280;15455;53.376;-6.262;2023-03-04T04:11:53;103033.38;;;3.80;100.00
28167;BME280;15455;53.376;-6.262;2023-03-04T04:14:39;103032.50;;;3.80;100.00
28167;BME280;15455;53.376;-6.262;2023-03-04T04:17:25;103034.06;;;3.78;100.00
28167;BME280;15455;53.376;-6.262;2023-03-04T04:20:11;103035.69;;;3.76;100.00
28167;BME280;15455;53.376;-6.262;2023-03-04T04:22:56;103040.84;;;3.76;100.00
28167;BME280;15455;53.376;-6.262;2023-03-04T04:25:41;103039.16;;;3.76;100.00
28167;BME280;15455;53.376;-6.262;2023-03-04T04:28:27;103038.25;;;3.76;100.00
28167;BME280;15455;53.376;-6.262;2023-03-04T04:31:12;103035.59;;;3.74;100.00
28167;BME280;15455;53.376;-6.262;2023-03-04T04:33:58;103030.41;;;3.74;100.00
28167;BME280;15455;53.376;-6.262;2023-03-04T04:36:43;103029.31;;;3.71;100.00
28167;BME280;15455;53.376;-6.262;2023-03-04T04:39:29;103035.50;;;3.73;100.00
28167;BME280;15455;53.376;-6.262;2023-03-04T04:42:15;103030.19;;;3.71;100.00
28167;BME280;15455;53.376;-6.262;2023-03-04T04:45:00;103031.03;;;3.70;100.00
28167;BME280;15455;53.376;-6.262;2023-03-04T04:47:45;103030.00;;;3.68;100.00
28167;BME280;15455;53.376;-6.262;2023-03-04T04:50:31;103033.50;;;3.69;100.00
28167;BME280;15455;53.376;-6.262;2023-03-04T04:53:17;103027.44;;;3.68;100.00
28167;BME280;15455;53.376;-6.262;2023-03-04T04:56:16;103035.19;;;3.68;100.00
28167;BME280;15455;53.376;-6.262;2023-03-04T04:59:03;103036.09;;;3.69;100.00
28167;BME280;15455;53.376;-6.262;2023-03-04T05:01:49;103032.50;;;3.67;100.00
28167;BME280;15455;53.376;-6.262;2023-03-04T05:04:34;103035.91;;;3.65;100.00
28167;BME280;15455;53.376;-6.262;2023-03-04T05:07:20;103036.78;;;3.66;100.00
28167;BME280;15455;53.376;-6.262;2023-03-04T05:10:05;103037.56;;;3.65;100.00
28167;BME280;15455;53.376;-6.262;2023-03-04T05:12:51;103040.16;;;3.65;100.00
28167;BME280;15455;53.376;-6.262;2023-03-04T05:15:37;103033.09;;;3.62;100.00
28167;BME280;15455;53.376;-6.262;2023-03-04T05:18:24;103035.69;;;3.62;100.00
28167;BME280;15455;53.376;-6.262;2023-03-04T05:21:11;103038.16;;;3.61;100.00
28167;BME280;15455;53.376;-6.262;2023-03-04T05:23:56;103041.75;;;3.63;100.00
28167;BME280;15455;53.376;-6.262;2023-03-04T05:26:42;103045.03;;;3.60;100.00
28167;BME280;15455;53.376;-6.262;2023-03-04T05:29:27;103042.44;;;3.60;100.00
28167;BME280;15455;53.376;-6.262;2023-03-04T05:32:13;103045.13;;;3.62;100.00
28167;BME280;15455;53.376;-6.262;2023-03-04T05:34:58;103047.72;;;3.62;100.00
28167;BME280;15455;53.376;-6.262;2023-03-04T05:37:43;103047.72;;;3.62;100.00
28167;BME280;15455;53.376;-6.262;2023-03-04T05:40:29;103051.19;;;3.62;100.00
28167;BME280;15455;53.376;-6.262;2023-03-04T05:43:15;103053.75;;;3.62;100.00
28167;BME280;15455;53.376;-6.262;2023-03-04T05:46:02;103051.09;;;3.61;100.00
28167;BME280;15455;53.376;-6.262;2023-03-04T05:48:48;103045.13;;;3.62;100.00
28167;BME280;15455;53.376;-6.262;2023-03-04T05:51:34;103051.09;;;3.61;100.00
28167;BME280;15455;53.376;-6.262;2023-03-04T05:54:19;103040.06;;;3.63;100.00
28167;BME280;15455;53.376;-6.262;2023-03-04T05:57:05;103045.22;;;3.63;100.00
28167;BME280;15455;53.376;-6.262;2023-03-04T05:59:51;103045.13;;;3.62;100.00
28167;BME280;15455;53.376;-6.262;2023-03-04T06:02:36;103044.25;;;3.61;100.00
28167;BME280;15455;53.376;-6.262;2023-03-04T06:05:22;103047.63;;;3.60;100.00
28167;BME280;15455;53.376;-6.262;2023-03-04T06:08:07;103045.03;;;3.60;100.00
28167;BME280;15455;53.376;-6.262;2023-03-04T06:10:54;103046.00;;;3.62;100.00
28167;BME280;15455;53.376;-6.262;2023-03-04T06:13:40;103045.91;;;3.61;100.00
28167;BME280;15455;53.376;-6.262;2023-03-04T06:16:25;103044.25;;;3.61;100.00
28167;BME280;15455;53.376;-6.262;2023-03-04T06:19:11;103052.97;;;3.63;100.00
28167;BME280;15455;53.376;-6.262;2023-03-04T06:21:56;103044.25;;;3.61;100.00
28167;BME280;15455;53.376;-6.262;2023-03-04T06:24:41;103049.59;;;3.64;100.00
28167;BME280;15455;53.376;-6.262;2023-03-04T06:27:27;103055.47;;;3.62;100.00
28167;BME280;15455;53.376;-6.262;2023-03-04T06:30:12;103052.88;;;3.62;100.00
28167;BME280;15455;53.376;-6.262;2023-03-04T06:32:58;103054.56;;;3.61;100.00
28167;BME280;15455;53.376;-6.262;2023-03-04T06:35:43;103056.25;;;3.61;100.00
28167;BME280;15455;53.376;-6.262;2023-03-04T06:38:28;103051.91;;;3.60;100.00
28167;BME280;15455;53.376;-6.262;2023-03-04T06:41:14;103048.41;;;3.59;100.00
28167;BME280;15455;53.376;-6.262;2023-03-04T06:44:00;103051.91;;;3.60;100.00
28167;BME280;15455;53.376;-6.262;2023-03-04T06:46:45;103048.31;;;3.58;100.00
28167;BME280;15455;53.376;-6.262;2023-03-04T06:49:31;103048.31;;;3.58;100.00
28167;BME280;15455;53.376;-6.262;2023-03-04T06:52:16;103053.47;;;3.58;100.00
28167;BME280;15455;53.376;-6.262;2023-03-04T06:55:02;103050.78;;;3.56;100.00
28167;BME280;15455;53.376;-6.262;2023-03-04T06:57:47;103055.97;;;3.56;100.00
28167;BME280;15455;53.376;-6.262;2023-03-04T07:00:33;103046.53;;;3.57;100.00
28167;BME280;15455;53.376;-6.262;2023-03-04T07:03:18;103053.38;;;3.56;100.00
28167;BME280;15455;53.376;-6.262;2023-03-04T07:06:03;103049.81;;;3.54;100.00
28167;BME280;15455;53.376;-6.262;2023-03-04T07:08:49;103044.75;;;3.56;100.00
28167;BME280;15455;53.376;-6.262;2023-03-04T07:11:35;103045.63;;;3.56;100.00
28167;BME280;15455;53.376;-6.262;2023-03-04T07:14:21;103049.81;;;3.54;100.00
28167;BME280;15455;53.376;-6.262;2023-03-04T07:17:08;103047.25;;;3.54;100.00
28167;BME280;15455;53.376;-6.262;2023-03-04T07:19:53;103039.59;;;3.56;100.00
28167;BME280;15455;53.376;-6.262;2023-03-04T07:22:39;103046.31;;;3.54;100.00
28167;BME280;15455;53.376;-6.262;2023-03-04T07:25:24;103044.56;;;3.53;100.00
28167;BME280;15455;53.376;-6.262;2023-03-04T07:28:09;103052.50;;;3.56;100.00
28167;BME280;15455;53.376;-6.262;2023-03-04T07:30:55;103055.78;;;3.53;100.00
28167;BME280;15455;53.376;-6.262;2023-03-04T07:33:40;103054.16;;;3.55;100.00
28167;BME280;15455;53.376;-6.262;2023-03-04T07:36:26;103056.75;;;3.55;100.00
28167;BME280;15455;53.376;-6.262;2023-03-04T07:39:12;103057.66;;;3.56;100.00
28167;BME280;15455;53.376;-6.262;2023-03-04T07:41:58;103055.19;;;3.57;100.00
28167;BME280;15455;53.376;-6.262;2023-03-04T07:44:43;103060.34;;;3.57;100.00
28167;BME280;15455;53.376;-6.262;2023-03-04T07:47:28;103057.75;;;3.57;100.00
28167;BME280;15455;53.376;-6.262;2023-03-04T07:50:15;103063.91;;;3.59;100.00
28167;BME280;15455;53.376;-6.262;2023-03-04T07:53:02;103058.72;;;3.59;100.00
28167;BME280;15455;53.376;-6.262;2023-03-04T07:55:47;103064.81;;;3.60;100.00
28167;BME280;15455;53.376;-6.262;2023-03-04T07:58:33;103067.19;;;3.57;100.00
28167;BME280;15455;53.376;-6.262;2023-03-04T08:01:33;103070.75;;;3.59;100.00
28167;BME280;15455;53.376;-6.262;2023-03-04T08:04:18;103069.16;;;3.61;100.00
28167;BME280;15455;53.376;-6.262;2023-03-04T08:07:04;103069.16;;;3.61;100.00
28167;BME280;15455;53.376;-6.262;2023-03-04T08:09:49;103067.50;;;3.61;100.00
28167;BME280;15455;53.376;-6.262;2023-03-04T08:12:35;103077.72;;;3.60;100.00
28167;BME280;15455;53.376;-6.262;2023-03-04T08:15:20;103079.59;;;3.62;100.00
28167;BME280;15455;53.376;-6.262;2023-03-04T08:18:05;103087.56;;;3.65;100.00
28167;BME280;15455;53.376;-6.262;2023-03-04T08:20:51;103088.53;;;3.68;100.00
28167;BME280;15455;53.376;-6.262;2023-03-04T08:23:37;103085.94;;;3.68;100.00
28167;BME280;15455;53.376;-6.262;2023-03-04T08:26:29;103086.81;;;3.68;100.00
28167;BME280;15455;53.376;-6.262;2023-03-04T08:29:18;103084.34;;;3.70;100.00
28167;BME280;15455;53.376;-6.262;2023-03-04T08:32:05;103085.06;;;3.67;100.00
28167;BME280;15455;53.376;-6.262;2023-03-04T08:34:51;103083.66;;;3.72;100.00
28167;BME280;15455;53.376;-6.262;2023-03-04T08:37:37;103084.66;;;3.74;100.00
28167;BME280;15455;53.376;-6.262;2023-03-04T08:40:23;103081.16;;;3.74;100.00
28167;BME280;15455;53.376;-6.262;2023-03-04T08:43:10;103076.19;;;3.77;100.00
28167;BME280;15455;53.376;-6.262;2023-03-04T08:45:56;103084.84;;;3.77;100.00
28167;BME280;15455;53.376;-6.262;2023-03-04T08:48:42;103081.44;;;3.78;100.00
28167;BME280;15455;53.376;-6.262;2023-03-04T08:51:27;103073.81;;;3.80;100.00
28167;BME280;15455;53.376;-6.262;2023-03-04T08:54:13;103071.34;;;3.81;100.00
28167;BME280;15455;53.376;-6.262;2023-03-04T08:56:58;103071.34;;;3.81;100.00
28167;BME280;15455;53.376;-6.262;2023-03-04T08:59:44;103073.00;;;3.81;100.00
28167;BME280;15455;53.376;-6.262;2023-03-04T09:02:29;103069.53;;;3.80;100.00
28167;BME280;15455;53.376;-6.262;2023-03-04T09:05:15;103070.50;;;3.82;100.00
28167;BME280;15455;53.376;-6.262;2023-03-04T09:08:00;103068.75;;;3.81;100.00
28167;BME280;15455;53.376;-6.262;2023-03-04T09:10:46;103069.63;;;3.82;100.00
28167;BME280;15455;53.376;-6.262;2023-03-04T09:13:32;103068.03;;;3.84;100.00
28167;BME280;15455;53.376;-6.262;2023-03-04T09:16:18;103061.97;;;3.83;100.00
28167;BME280;15455;53.376;-6.262;2023-03-04T09:19:03;103067.34;;;3.87;100.00
28167;BME280;15455;53.376;-6.262;2023-03-04T09:21:49;103061.38;;;3.88;100.00
28167;BME280;15455;53.376;-6.262;2023-03-04T09:24:34;103063.16;;;3.89;100.00
28167;BME280;15455;53.376;-6.262;2023-03-04T09:27:19;103053.63;;;3.88;100.00
28167;BME280;15455;53.376;-6.262;2023-03-04T09:30:06;103067.69;;;3.93;100.00
28167;BME280;15455;53.376;-6.262;2023-03-04T09:32:51;103066.44;;;3.86;100.00
28167;BME280;15455;53.376;-6.262;2023-03-04T09:35:37;103059.06;;;3.92;100.00
28167;BME280;15455;53.376;-6.262;2023-03-04T09:38:22;103066.91;;;3.94;100.00
28167;BME280;15455;53.376;-6.262;2023-03-04T09:44:39;103072.28;;;3.97;100.00
28167;BME280;15455;53.376;-6.262;2023-03-04T09:47:25;103068.09;;;3.99;100.00
28167;BME280;15455;53.376;-6.262;2023-03-04T09:50:11;103071.28;;;3.95;100.00
28167;BME280;15455;53.376;-6.262;2023-03-04T09:53:24;103069.69;;;3.97;100.00
28167;BME280;15455;53.376;-6.262;2023-03-04T09:56:14;103073.28;;;3.99;100.00
28167;BME280;15455;53.376;-6.262;2023-03-04T10:01:57;103068.19;;;4.00;100.00
28167;BME280;15455;53.376;-6.262;2023-03-04T10:04:47;103071.75;;;4.03;100.00
28167;BME280;15455;53.376;-6.262;2023-03-04T10:07:37;103073.75;;;4.07;100.00
28167;BME280;15455;53.376;-6.262;2023-03-04T10:10:32;103070.00;;;4.02;100.00
28167;BME280;15455;53.376;-6.262;2023-03-04T10:13:28;103068.66;;;4.08;100.00
28167;BME280;15455;53.376;-6.262;2023-03-04T10:16:20;103068.28;;;4.02;100.00
28167;BME280;15455;53.376;-6.262;2023-03-04T10:21:52;103067.28;;;4.13;100.00
28167;BME280;15455;53.376;-6.262;2023-03-04T10:24:37;103056.25;;;4.16;100.00
28167;BME280;15455;53.376;-6.262;2023-03-04T10:27:23;103048.75;;;4.21;100.00
28167;BME280;15455;53.376;-6.262;2023-03-04T10:33:16;103062.69;;;4.38;100.00
28167;BME280;15455;53.376;-6.262;2023-03-04T10:39:12;103062.25;;;4.45;100.00
28167;BME280;15455;53.376;-6.262;2023-03-04T10:42:03;103061.03;;;4.53;100.00
28167;BME280;15455;53.376;-6.262;2023-03-04T10:44:58;103058.00;;;4.60;100.00
28167;BME280;15455;53.376;-6.262;2023-03-04T10:47:51;103045.44;;;4.66;100.00
28167;BME280;15455;53.376;-6.262;2023-03-04T10:50:36;103049.09;;;4.70;100.00
28167;BME280;15455;53.376;-6.262;2023-03-04T10:53:31;103040.44;;;4.55;100.00
28167;BME280;15455;53.376;-6.262;2023-03-04T10:56:38;103040.88;;;4.47;100.00
28167;BME280;15455;53.376;-6.262;2023-03-04T11:02:24;103035.97;;;4.52;100.00
28167;BME280;15455;53.376;-6.262;2023-03-04T11:07:59;103032.06;;;4.74;100.00
28167;BME280;15455;53.376;-6.262;2023-03-04T11:10:46;103032.25;;;4.77;100.00
28167;BME280;15455;53.376;-6.262;2023-03-04T11:13:31;103030.63;;;4.79;100.00
28167;BME280;15455;53.376;-6.262;2023-03-04T11:16:29;103028.13;;;4.80;100.00
28167;BME280;15455;53.376;-6.262;2023-03-04T11:19:16;103025.00;;;4.86;100.00
28167;BME280;15455;53.376;-6.262;2023-03-04T11:22:05;103025.13;;;4.73;100.00
28167;BME280;15455;53.376;-6.262;2023-03-04T11:25:00;103019.78;;;4.69;100.00
28167;BME280;15455;53.376;-6.262;2023-03-04T11:27:51;103021.69;;;4.74;100.00
28167;BME280;15455;53.376;-6.262;2023-03-04T11:30:51;103023.16;;;4.68;100.00
28167;BME280;15455;53.376;-6.262;2023-03-04T11:34:13;103025.19;;;4.59;100.00
28167;BME280;15455;53.376;-6.262;2023-03-04T11:37:14;103019.38;;;4.63;100.00
28167;BME280;15455;53.376;-6.262;2023-03-04T11:40:17;103016.19;;;4.67;100.00
28167;BME280;15455;53.376;-6.262;2023-03-04T11:53:07;103013.78;;;4.85;100.00
28167;BME280;15455;53.376;-6.262;2023-03-04T11:58:32;103002.97;;;4.78;100.00
28167;BME280;15455;53.376;-6.262;2023-03-04T12:01:33;103000.66;;;4.82;100.00
28167;BME280;15455;53.376;-6.262;2023-03-04T12:07:56;102994.00;;;4.71;100.00
28167;BME280;15455;53.376;-6.262;2023-03-04T12:11:03;102995.31;;;4.79;100.00
28167;BME280;15455;53.376;-6.262;2023-03-04T12:24:08;102992.72;;;4.79;100.00
28167;BME280;15455;53.376;-6.262;2023-03-04T12:27:20;102993.53;;;4.78;100.00
28167;BME280;15455;53.376;-6.262;2023-03-04T12:36:16;102987.34;;;5.06;100.00
28167;BME280;15455;53.376;-6.262;2023-03-04T12:42:37;102985.09;;;5.12;100.00
28167;BME280;15455;53.376;-6.262;2023-03-04T12:45:41;102983.88;;;5.06;100.00
28167;BME280;15455;53.376;-6.262;2023-03-04T12:48:42;102971.03;;;5.07;100.00
28167;BME280;15455;53.376;-6.262;2023-03-04T12:54:36;102972.16;;;5.12;100.00
28167;BME280;15455;53.376;-6.262;2023-03-04T12:57:25;102974.09;;;5.16;100.00
28167;BME280;15455;53.376;-6.262;2023-03-04T13:01:23;102963.50;;;5.12;100.00
28167;BME280;15455;53.376;-6.262;2023-03-04T13:03:57;102966.19;;;5.30;100.00
28167;BME280;15455;53.376;-6.262;2023-03-04T13:09:50;102958.88;;;5.54;100.00
28167;BME280;15455;53.376;-6.262;2023-03-04T13:12:49;102946.41;;;5.47;100.00
28167;BME280;15455;53.376;-6.262;2023-03-04T13:15:36;102945.97;;;5.22;100.00
28167;BME280;15455;53.376;-6.262;2023-03-04T13:24:00;102932.22;;;5.24;100.00
28167;BME280;15455;53.376;-6.262;2023-03-04T13:36:26;102916.06;;;5.44;100.00
28167;BME280;15455;53.376;-6.262;2023-03-04T13:42:01;102904.09;;;5.46;100.00
28167;BME280;15455;53.376;-6.262;2023-03-04T13:47:43;102897.78;;;5.57;100.00
28167;BME280;15455;53.376;-6.262;2023-03-04T13:50:33;102888.22;;;5.56;100.00
28167;BME280;15455;53.376;-6.262;2023-03-04T13:56:21;102889.13;;;5.41;100.00
28167;BME280;15455;53.376;-6.262;2023-03-04T14:05:00;102889.28;;;5.44;100.00
28167;BME280;15455;53.376;-6.262;2023-03-04T14:07:46;102882.72;;;5.34;100.00
28167;BME280;15455;53.376;-6.262;2023-03-04T14:10:32;102878.34;;;5.33;100.00
28167;BME280;15455;53.376;-6.262;2023-03-04T14:13:18;102875.25;;;5.24;100.00
28167;BME280;15455;53.376;-6.262;2023-03-04T14:16:03;102883.91;;;5.24;100.00
28167;BME280;15455;53.376;-6.262;2023-03-04T14:18:56;102884.00;;;5.26;100.00
28167;BME280;15455;53.376;-6.262;2023-03-04T14:21:46;102877.13;;;5.26;100.00
28167;BME280;15455;53.376;-6.262;2023-03-04T14:24:32;102867.91;;;5.31;100.00
28167;BME280;15455;53.376;-6.262;2023-03-04T14:27:17;102874.31;;;5.38;100.00
28167;BME280;15455;53.376;-6.262;2023-03-04T14:30:06;102862.56;;;5.28;100.00
28167;BME280;15455;53.376;-6.262;2023-03-04T14:32:53;102861.84;;;5.31;100.00
28167;BME280;15455;53.376;-6.262;2023-03-04T14:35:45;102865.38;;;5.33;100.00
28167;BME280;15455;53.376;-6.262;2023-03-04T14:38:34;102861.44;;;5.23;100.00
28167;BME280;15455;53.376;-6.262;2023-03-04T14:41:34;102858.78;;;5.21;100.00
28167;BME280;15455;53.376;-6.262;2023-03-04T14:44:33;102855.63;;;5.27;100.00
28167;BME280;15455;53.376;-6.262;2023-03-04T14:47:32;102855.28;;;5.21;100.00
28167;BME280;15455;53.376;-6.262;2023-03-04T14:50:20;102843.06;;;5.18;100.00
28167;BME280;15455;53.376;-6.262;2023-03-04T14:58:53;102832.69;;;5.18;100.00
28167;BME280;15455;53.376;-6.262;2023-03-04T15:01:39;102829.38;;;5.21;100.00
28167;BME280;15455;53.376;-6.262;2023-03-04T15:04:24;102834.09;;;5.28;100.00
28167;BME280;15455;53.376;-6.262;2023-03-04T15:07:15;102823.50;;;5.24;100.00
28167;BME280;15455;53.376;-6.262;2023-03-04T15:10:05;102828.66;;;5.24;100.00
28167;BME280;15455;53.376;-6.262;2023-03-04T15:12:53;102835.78;;;5.28;100.00
28167;BME280;15455;53.376;-6.262;2023-03-04T15:18:27;102828.03;;;5.28;100.00
28167;BME280;15455;53.376;-6.262;2023-03-04T15:24:07;102831.50;;;5.12;100.00
28167;BME280;15455;53.376;-6.262;2023-03-04T15:26:54;102829.94;;;5.15;100.00
28167;BME280;15455;53.376;-6.262;2023-03-04T15:29:39;102819.75;;;5.18;100.00
28167;BME280;15455;53.376;-6.262;2023-03-04T15:32:26;102823.41;;;5.22;100.00
28167;BME280;15455;53.376;-6.262;2023-03-04T15:35:14;102816.53;;;5.22;100.00
28167;BME280;15455;53.376;-6.262;2023-03-04T15:38:00;102823.91;;;5.15;100.00
28167;BME280;15455;53.376;-6.262;2023-03-04T15:40:46;102822.50;;;5.05;100.00
28167;BME280;15455;53.376;-6.262;2023-03-04T15:43:32;102822.66;;;5.08;100.00
28167;BME280;15455;53.376;-6.262;2023-03-04T15:46:17;102821.63;;;5.04;100.00
28167;BME280;15455;53.376;-6.262;2023-03-04T15:49:03;102811.03;;;5.00;100.00
28167;BME280;15455;53.376;-6.262;2023-03-04T15:51:49;102812.72;;;4.99;100.00
28167;BME280;15455;53.376;-6.262;2023-03-04T15:54:34;102801.88;;;4.90;100.00
28167;BME280;15455;53.376;-6.262;2023-03-04T15:57:23;102800.66;;;4.83;100.00
28167;BME280;15455;53.376;-6.262;2023-03-04T16:00:10;102797.41;;;4.87;100.00
28167;BME280;15455;53.376;-6.262;2023-03-04T16:02:56;102793.13;;;4.88;100.00
28167;BME280;15455;53.376;-6.262;2023-03-04T16:05:43;102793.22;;;4.90;100.00
28167;BME280;15455;53.376;-6.262;2023-03-04T16:08:28;102791.38;;;4.87;100.00
28167;BME280;15455;53.376;-6.262;2023-03-04T16:11:16;102791.53;;;4.90;100.00
28167;BME280;15455;53.376;-6.262;2023-03-04T16:14:02;102793.22;;;4.90;100.00
28167;BME280;15455;53.376;-6.262;2023-03-04T16:16:48;102792.41;;;4.91;100.00
28167;BME280;15455;53.376;-6.262;2023-03-04T16:19:34;102789.25;;;4.80;100.00